Anza Borrego Desert State Park, California Weather observations

Data are for 10 minute period ending at time listed.
 Day   Time   Solar   Ave.   Ave.  Ave.  Vector  Max.   Baro.   Total    
  of    of     Rad.   Air    Rel.  Wind   Wind   Wind  Press.  Precip.   
Year   Day            Temp.  Hum.  Speed  Dir.   Gust                    
2016   (PST)  Kw/m2    F      %     mph   deg.    mph    mb.     in.     
-------------------------------------------------------------------------
 341   18:30   0.00   61.0    46    5.6   336     9.4   981.0    0.00 
 341   18:40   0.00   60.8    46    3.7   216     6.1   981.0    0.00 
 341   18:50   0.00   59.7    48    2.2   114     6.8   981.0    0.00 
 341   19:00   0.00   59.4    49    0.7   117     3.4   980.9    0.00 
 341   19:10   0.00   59.2    49    3.6   155     5.3   980.9    0.00 
 341   19:20   0.00   59.0    49    4.0   132     5.3   980.9    0.00 
 341   19:30   0.00   58.8    49    4.6   145     6.6   980.9    0.00 
 341   19:40   0.00   59.2    48    6.3   143     8.9   980.7    0.00 
 341   19:50   0.00   60.2    46    5.3   115     7.3   980.7    0.00 
 341   20:00   0.00   59.6    47    6.1   125     8.5   980.7    0.00 
 341   20:10   0.00   59.8    46    7.1   135    13.4   980.8    0.00 
 341   20:20   0.00   60.2    44    5.8   143     8.3   980.9    0.00 
 341   20:30   0.00   60.0    45    8.4   185    15.1   980.9    0.00 
 341   20:40   0.00   60.1    45    8.6   233    14.4   981.0    0.00 
 341   20:50   0.00   60.2    44    3.0   174    10.2   981.0    0.00 
 341   21:00   0.00   60.0    44    2.7   142     5.8   980.9    0.00 
 341   21:10   0.00   58.7    46    3.4   289     5.3   980.9    0.00 
 341   21:20   0.00   57.8    48    5.4   301     7.2   980.8    0.00 
 341   21:30   0.00   58.9    44    3.7   321     7.5   980.9    0.00 
 341   21:40   0.00   58.2    46    2.8   144     5.9   980.9    0.00 
 341   21:50   0.00   58.5    46    5.6   110     9.0   981.0    0.00 
 341   22:00   0.00   57.2    48    4.7   113     7.4   980.9    0.00 
 341   22:10   0.00   56.2    50    1.6   106     4.2   981.0    0.00 
 341   22:20   0.00   54.9    51    4.4   208     6.4   980.9    0.00 
 341   22:30   0.00   55.5    51    6.6   156     9.8   980.8    0.00 
 341   22:40   0.00   56.2    50    4.4   165     7.2   980.7    0.00 
 341   22:50   0.00   55.5    51    1.9   282     3.9   980.7    0.00 
 341   23:00   0.00   56.2    50    1.8   274     3.8   980.7    0.00 
 341   23:10   0.00   54.1    52    4.7   234     7.2   980.8    0.00 
 341   23:20   0.00   52.6    54    5.6   210     9.1   980.8    0.00 
 341   23:30   0.00   53.3    53    5.5   190     8.7   980.9    0.00 
 341   23:40   0.00   54.1    53    9.1   158    11.9   980.9    0.00 
 341   23:50   0.00   56.0    50    6.7   138    12.8   980.9    0.00 
 342    0:00   0.00   54.6    52    6.5   166     9.1   981.1    0.00 
 342    0:10   0.00   54.1    52    6.3   168     7.8   981.0    0.00 
 342    0:20   0.00   55.5    49    7.6   158    13.3   981.0    0.00 
 342    0:30   0.00   57.2    47    7.7   139    15.7   980.9    0.00 
 342    0:40   0.00   57.8    45    9.2   167    19.1   981.1    0.00 
 342    0:50   0.00   57.7    46    7.5   173    11.5   981.2    0.00 
 342    1:00   0.00   55.9    49    5.3   151     7.7   981.4    0.00 
 342    1:10   0.00   54.8    50    3.6   169     5.0   981.4    0.00 
 342    1:20   0.00   53.8    52    3.0   151     6.8   981.4    0.00 
 342    1:30   0.00   53.5    52    3.7   220     5.5   981.4    0.00 
 342    1:40   0.00   53.0    53    3.8   203     9.1   981.5    0.00 
 342    1:50   0.00   52.2    55    4.4   196     8.0   981.5    0.00 
 342    2:00   0.00   51.6    55    4.2   250     6.1   981.5    0.00 
 342    2:10   0.00   52.4    54    4.9   243     6.6   981.5    0.00 
 342    2:20   0.00   52.4    54    6.3   243     9.9   981.5    0.00 
 342    2:30   0.00   51.4    56    5.2   240     8.0   981.6    0.00 
 342    2:40   0.00   51.5    56    4.1   246     6.6   981.6    0.00 
 342    2:50   0.00   51.4    56    3.9   263     6.3   981.6    0.00 
 342    3:00   0.00   50.4    58    4.0   317     5.5   981.6    0.00 
 342    3:10   0.00   50.3    58    2.3     3     4.2   981.7    0.00 
 342    3:20   0.00   49.4    60    1.5   241     3.2   981.7    0.00 
 342    3:30   0.00   49.4    60    2.6   220     5.0   981.8    0.00 
 342    3:40   0.00   49.7    59    3.6   231     5.5   981.9    0.00 
 342    3:50   0.00   48.5    62    2.7   266     3.7   981.9    0.00 
 342    4:00   0.00   49.3    60    3.0   310     4.1   982.1    0.00 
 342    4:10   0.00   48.7    62    2.8   298     4.5   982.3    0.00 
 342    4:20   0.00   49.0    61    4.1   257     6.1   982.3    0.00 
 342    4:30   0.00   50.2    58    5.9   236     8.6   982.3    0.00 
 342    4:40   0.00   49.8    58    4.6   250     6.1   982.5    0.00 
 342    4:50   0.00   48.6    60    3.1   262     3.9   982.7    0.00 
 342    5:00   0.00   47.8    61    1.9   270     3.7   982.8    0.00 
 342    5:10   0.00   48.2    60    2.2   277     4.0   983.0    0.00 
 342    5:20   0.00   48.2    60    1.5   286     2.3   983.2    0.00 
 342    5:30   0.00   51.4    55    0.7    80     2.3   983.3    0.00 
 342    5:40   0.00   50.6    57    4.2   160     7.4   983.5    0.00 
 342    5:50   0.00   51.1    56    4.4   205     9.1   983.6    0.00 
 342    6:00   0.00   52.9    53    5.5   207     9.0   983.6    0.00 
 342    6:10   0.00   53.0    52    1.7   244     3.4   983.8    0.00 
 342    6:20   0.00   51.6    55    1.1   127     3.0   984.0    0.00 
 342    6:30   0.00   51.7    55    1.7   171     3.7   984.2    0.00 
 342    6:40   0.00   51.3    56    4.1   250     6.6   984.3    0.00 
 342    6:50   0.01   51.7    55    4.0   250     6.1   984.5    0.00 
 342    7:00   0.02   53.1    53    3.0   246     5.1   984.6    0.00 
 342    7:10   0.04   53.9    52    3.9   237     5.4   984.8    0.00 
 342    7:20   0.07   54.2    52    3.3   215     6.2   985.0    0.00 
 342    7:30   0.08   54.4    52    5.0   229     6.9   985.2    0.00 
 342    7:40   0.09   55.5    49    5.7   191     8.7   985.4    0.00 
 342    7:50   0.10   55.9    49    6.0   183     7.3   985.8    0.00 
 342    8:00   0.10   56.0    49    6.6   189     8.8   986.0    0.00 
 342    8:10   0.11   56.6    48    5.1   205     7.6   986.1    0.00 
 342    8:20   0.16   57.9    46    2.8   208     4.7   986.2    0.00 
 342    8:30   0.20   59.3    43    4.3   194     5.8   986.4    0.00 
 342    8:40   0.23   59.6    43    3.1   241     4.5   986.7    0.00 
 342    8:50   0.34   60.9    41    5.3   184     7.6   986.9    0.00 
 342    9:00   0.34   61.9    39    4.9   156     8.9   987.1    0.00 
 342    9:10   0.35   62.2    38    3.6   146     5.0   987.3    0.00 
 342    9:20   0.41   62.9    37    3.1   138     5.7   987.4    0.00 
 342    9:30   0.42   63.6    37    3.4   153     5.5   987.6    0.00 
 342    9:40   0.43   64.3    36    2.9   168     5.2   987.7    0.00 
 342    9:50   0.39   63.4    36    3.5   106     5.6   987.8    0.00 
 342   10:00   0.47   62.9    36    4.4    82     7.5   987.9    0.00 
 342   10:10   0.54   63.6    36    3.3    85     6.3   987.8    0.00 
 342   10:20   0.45   64.4    35    3.4   134     6.8   987.7    0.00 
 342   10:30   0.55   64.0    34    4.3   135     6.8   987.6    0.00 
 342   10:40   0.48   64.4    33    3.3   112     5.8   987.4    0.00 
 342   10:50   0.44   64.7    33    4.4    88     7.4   987.2    0.00 
 342   11:00   0.45   64.2    33    4.1   100     6.9   987.2    0.00 
 342   11:10   0.62   64.8    33    4.0    98     7.0   987.2    0.00 
 342   11:20   0.61   65.6    31    6.4   106    11.5   987.0    0.00 
 342   11:30   0.55   65.2    32    6.3   132    11.2   986.9    0.00 
 342   11:40   0.28   64.8    33    6.4   127    11.0   986.7    0.00 
 342   11:50   0.30   64.1    34    6.5   120    11.0   986.7    0.00 
 342   12:00   0.23   64.1    34    6.1   129    12.0   986.8    0.00 
 342   12:10   0.22   63.8    34    7.0   123    11.9   986.6    0.00 
 342   12:20   0.23   63.8    34    5.9   108    10.4   986.4    0.00 
 342   12:30   0.21   63.9    34    5.6   114     8.8   986.4    0.00 
 342   12:40   0.30   63.8    33    5.7   129     9.6   986.3    0.00 
 342   12:50   0.23   63.9    31    7.4   131     9.9   986.4    0.00 
 342   13:00   0.15   63.5    31    5.9   130     9.9   986.4    0.00 
 342   13:10   0.42   64.0    31    4.4   121     7.1   986.4    0.00 
 342   13:20   0.50   65.3    29    5.3   125     8.0   986.4    0.00 
 342   13:30   0.18   65.1    29    4.5   120     9.6   986.4    0.00 
 342   13:40   0.13   63.5    32    5.7   118     9.4   986.3    0.00 
 342   13:50   0.10   63.3    33    4.4   138     7.6   986.3    0.00 
 342   14:00   0.16   63.6    32    4.1   155     7.7   986.3    0.00 
 342   14:10   0.33   64.3    32    4.0   147     8.9   986.4    0.00 
 342   14:20   0.31   64.6    31    6.1   137     9.4   986.5    0.00 
 342   14:30   0.45   65.0    30    6.3   123     9.8   986.5    0.00 
 342   14:40   0.17   64.5    31    7.1   139    11.9   986.5    0.00 
 342   14:50   0.10   63.4    31    7.4   146    11.3   986.7    0.00 
 342   15:00   0.20   63.4    30    7.8   150    11.0   986.9    0.00 
 342   15:10   0.14   63.5    28    8.9   151    11.5   987.0    0.00 
 342   15:20   0.10   63.0    28    8.0   145    11.0   987.1    0.00 
 342   15:30   0.07   62.8    27    7.5   157    10.3   987.3    0.00 
 342   15:40   0.05   62.5    27    7.6   155    10.9   987.4    0.00 
 342   15:50   0.04   62.2    28    7.7   147    10.6   987.2    0.00 
 342   16:00   0.03   61.8    27    6.8   152     9.2   987.3    0.00 
 342   16:10   0.02   61.5    27    6.5   162     8.6   987.3    0.00 
 342   16:20   0.01   60.9    27    4.9   156     6.9   987.3    0.00 
 342   16:30   0.00   59.9    27    4.0   163     5.9   987.3    0.00 
 342   16:40   0.00   58.8    29    4.1   184     5.6   987.3    0.00 
 342   16:50   0.00   57.3    30    3.8   209     5.0   987.3    0.00 
 342   17:00   0.00   54.9    34    4.4   226     6.0   987.2    0.00 
 342   17:10   0.00   55.0    34    5.5   233     6.9   987.2    0.00 
 342   17:20   0.00   55.6    33    6.4   239     7.3   987.4    0.00 
 342   17:30   0.00   56.1    32    7.2   237     8.9   987.6    0.00 
 342   17:40   0.00   56.5    32    8.5   238     9.7   987.8    0.00 
 342   17:50   0.00   55.6    33    7.6   239     9.5   987.9    0.00 
 342   18:00   0.00   55.3    34    5.9   242     8.7   988.0    0.00 
 342   18:10   0.00   55.0    35    6.0   252     8.5   988.1    0.00 
 342   18:20   0.00   54.9    35    6.2   247     7.8   988.1    0.00 

Return to Anza Borrego Desert State Park graphs page.


Western Regional Climate Center,wrcc@dri.edu